sensor_id;sensor_type;location;lat;lon;timestamp;pressure;altitude;pressure_sealevel;temperature
15544;BMP180;7873;52.230;12.856;2023-06-22T00:01:11;101147.41;;;26.46
15544;BMP180;7873;52.230;12.856;2023-06-22T00:03:38;101151.69;;;26.40
15544;BMP180;7873;52.230;12.856;2023-06-22T00:06:04;101149.19;;;26.39
15544;BMP180;7873;52.230;12.856;2023-06-22T00:08:31;101146.66;;;26.37
15544;BMP180;7873;52.230;12.856;2023-06-22T00:10:59;101143.16;;;26.37
15544;BMP180;7873;52.230;12.856;2023-06-22T00:13:25;101155.78;;;26.36
15544;BMP180;7873;52.230;12.856;2023-06-22T00:15:52;101154.97;;;26.36
15544;BMP180;7873;52.230;12.856;2023-06-22T00:18:19;101163.25;;;26.34
15544;BMP180;7873;52.230;12.856;2023-06-22T00:20:46;101160.72;;;26.33
15544;BMP180;7873;52.230;12.856;2023-06-22T00:23:12;101163.41;;;26.33
15544;BMP180;7873;52.230;12.856;2023-06-22T00:25:41;101159.25;;;26.30
15544;BMP180;7873;52.230;12.856;2023-06-22T00:28:09;101162.34;;;26.27
15544;BMP180;7873;52.230;12.856;2023-06-22T00:30:35;101166.88;;;26.27
15544;BMP180;7873;52.230;12.856;2023-06-22T00:33:02;101163.34;;;26.26
15544;BMP180;7873;52.230;12.856;2023-06-22T00:35:33;101163.34;;;26.26
15544;BMP180;7873;52.230;12.856;2023-06-22T00:38:00;101167.72;;;26.27
15544;BMP180;7873;52.230;12.856;2023-06-22T00:40:29;101170.44;;;26.27
15544;BMP180;7873;52.230;12.856;2023-06-22T00:42:56;101161.03;;;26.23
15544;BMP180;7873;52.230;12.856;2023-06-22T00:45:24;101163.75;;;26.23
15544;BMP180;7873;52.230;12.856;2023-06-22T00:47:52;101164.94;;;26.21
15544;BMP180;7873;52.230;12.856;2023-06-22T00:50:21;101169.50;;;26.20
15544;BMP180;7873;52.230;12.856;2023-06-22T00:52:51;101173.41;;;26.18
15544;BMP180;7873;52.230;12.856;2023-06-22T00:55:18;101170.06;;;26.16
15544;BMP180;7873;52.230;12.856;2023-06-22T00:57:46;101180.88;;;26.16
15544;BMP180;7873;52.230;12.856;2023-06-22T01:00:13;101167.16;;;26.17
15544;BMP180;7873;52.230;12.856;2023-06-22T01:02:44;101165.69;;;26.15
15544;BMP180;7873;52.230;12.856;2023-06-22T01:05:12;101158.63;;;26.14
15544;BMP180;7873;52.230;12.856;2023-06-22T01:07:43;101156.94;;;26.13
15544;BMP180;7873;52.230;12.856;2023-06-22T01:10:17;101159.19;;;26.09
15544;BMP180;7873;52.230;12.856;2023-06-22T01:12:51;101163.38;;;26.12
15544;BMP180;7873;52.230;12.856;2023-06-22T01:15:23;101160.69;;;26.12
15544;BMP180;7873;52.230;12.856;2023-06-22T01:17:53;101166.06;;;26.12
15544;BMP180;7873;52.230;12.856;2023-06-22T01:20:20;101162.53;;;26.11
15544;BMP180;7873;52.230;12.856;2023-06-22T01:23:00;101170.63;;;26.11
15544;BMP180;7873;52.230;12.856;2023-06-22T01:25:37;101165.78;;;26.07
15544;BMP180;7873;52.230;12.856;2023-06-22T01:28:20;101166.63;;;26.07
15544;BMP180;7873;52.230;12.856;2023-06-22T01:30:51;101163.06;;;26.07
15544;BMP180;7873;52.230;12.856;2023-06-22T01:33:26;101168.66;;;26.05
15544;BMP180;7873;52.230;12.856;2023-06-22T01:35:53;101176.28;;;26.02
15544;BMP180;7873;52.230;12.856;2023-06-22T01:38:20;101168.84;;;26.04
15544;BMP180;7873;52.230;12.856;2023-06-22T01:40:48;101174.06;;;26.05
15544;BMP180;7873;52.230;12.856;2023-06-22T01:43:16;101178.63;;;26.05
15544;BMP180;7873;52.230;12.856;2023-06-22T01:45:43;101177.31;;;26.01
15544;BMP180;7873;52.230;12.856;2023-06-22T01:48:11;101189.78;;;26.02
15544;BMP180;7873;52.230;12.856;2023-06-22T01:50:38;101188.31;;;25.99
15544;BMP180;7873;52.230;12.856;2023-06-22T01:53:04;101190.16;;;25.99
15544;BMP180;7873;52.230;12.856;2023-06-22T01:55:32;101187.47;;;25.99
15544;BMP180;7873;52.230;12.856;2023-06-22T01:57:59;101186.81;;;25.97
15544;BMP180;7873;52.230;12.856;2023-06-22T02:00:28;101182.44;;;25.96
15544;BMP180;7873;52.230;12.856;2023-06-22T02:03:00;101181.22;;;25.98
15544;BMP180;7873;52.230;12.856;2023-06-22T02:05:33;101173.31;;;25.97
15544;BMP180;7873;52.230;12.856;2023-06-22T02:08:07;101180.41;;;25.98
15544;BMP180;7873;52.230;12.856;2023-06-22T02:10:36;101179.91;;;25.94
15544;BMP180;7873;52.230;12.856;2023-06-22T02:13:06;101187.38;;;25.92
15544;BMP180;7873;52.230;12.856;2023-06-22T02:15:33;101193.78;;;25.91
15544;BMP180;7873;52.230;12.856;2023-06-22T02:18:00;101190.44;;;25.89
15544;BMP180;7873;52.230;12.856;2023-06-22T02:20:27;101192.47;;;25.87
15544;BMP180;7873;52.230;12.856;2023-06-22T02:22:55;101191.84;;;25.85
15544;BMP180;7873;52.230;12.856;2023-06-22T02:25:21;101191.63;;;25.87
15544;BMP180;7873;52.230;12.856;2023-06-22T02:27:48;101192.84;;;25.84
15544;BMP180;7873;52.230;12.856;2023-06-22T02:30:15;101187.25;;;25.86
15544;BMP180;7873;52.230;12.856;2023-06-22T02:32:41;101187.47;;;25.84
15544;BMP180;7873;52.230;12.856;2023-06-22T02:35:09;101193.00;;;25.83
15544;BMP180;7873;52.230;12.856;2023-06-22T02:37:36;101196.06;;;25.80
15544;BMP180;7873;52.230;12.856;2023-06-22T02:40:07;101197.75;;;25.81
15544;BMP180;7873;52.230;12.856;2023-06-22T02:42:34;101195.25;;;25.79
15544;BMP180;7873;52.230;12.856;2023-06-22T02:45:01;101192.72;;;25.78
15544;BMP180;7873;52.230;12.856;2023-06-22T02:47:27;101189.19;;;25.77
15544;BMP180;7873;52.230;12.856;2023-06-22T02:49:54;101191.03;;;25.77
15544;BMP180;7873;52.230;12.856;2023-06-22T02:52:21;101191.03;;;25.77
15544;BMP180;7873;52.230;12.856;2023-06-22T02:54:47;101186.84;;;25.74
15544;BMP180;7873;52.230;12.856;2023-06-22T02:57:15;101190.56;;;25.73
15544;BMP180;7873;52.230;12.856;2023-06-22T02:59:42;101183.97;;;25.76
15544;BMP180;7873;52.230;12.856;2023-06-22T03:02:09;101192.22;;;25.74
15544;BMP180;7873;52.230;12.856;2023-06-22T03:04:35;101190.38;;;25.75
15544;BMP180;7873;52.230;12.856;2023-06-22T03:07:03;101189.75;;;25.73
15544;BMP180;7873;52.230;12.856;2023-06-22T03:09:29;101193.25;;;25.73
15544;BMP180;7873;52.230;12.856;2023-06-22T03:11:57;101199.66;;;25.72
15544;BMP180;7873;52.230;12.856;2023-06-22T03:14:25;101201.53;;;25.72
15544;BMP180;7873;52.230;12.856;2023-06-22T03:16:51;101190.47;;;25.67
15544;BMP180;7873;52.230;12.856;2023-06-22T03:19:18;101193.34;;;25.65
15544;BMP180;7873;52.230;12.856;2023-06-22T03:21:46;101187.78;;;25.67
15544;BMP180;7873;52.230;12.856;2023-06-22T03:24:13;101190.47;;;25.67
15544;BMP180;7873;52.230;12.856;2023-06-22T03:26:40;101194.19;;;25.66
15544;BMP180;7873;52.230;12.856;2023-06-22T03:29:06;101191.50;;;25.66
15544;BMP180;7873;52.230;12.856;2023-06-22T03:31:35;101197.81;;;25.58
15544;BMP180;7873;52.230;12.856;2023-06-22T03:34:01;101204.91;;;25.52
15544;BMP180;7873;52.230;12.856;2023-06-22T03:36:28;101208.34;;;25.46
15544;BMP180;7873;52.230;12.856;2023-06-22T03:38:55;101206.97;;;25.50
15544;BMP180;7873;52.230;12.856;2023-06-22T03:41:22;101210.88;;;25.47
15544;BMP180;7873;52.230;12.856;2023-06-22T03:43:49;101207.81;;;25.50
15544;BMP180;7873;52.230;12.856;2023-06-22T03:46:15;101210.53;;;25.50
15544;BMP180;7873;52.230;12.856;2023-06-22T03:48:43;101205.75;;;25.38
15544;BMP180;7873;52.230;12.856;2023-06-22T03:51:10;101210.19;;;25.31
15544;BMP180;7873;52.230;12.856;2023-06-22T03:53:37;101209.81;;;25.34
15544;BMP180;7873;52.230;12.856;2023-06-22T03:56:04;101212.28;;;25.43
15544;BMP180;7873;52.230;12.856;2023-06-22T03:58:30;101216.00;;;25.42
15544;BMP180;7873;52.230;12.856;2023-06-22T04:00:58;101213.09;;;25.44
15544;BMP180;7873;52.230;12.856;2023-06-22T04:03:25;101222.56;;;25.40
15544;BMP180;7873;52.230;12.856;2023-06-22T04:05:53;101229.09;;;25.45
15544;BMP180;7873;52.230;12.856;2023-06-22T04:08:20;101235.44;;;25.52
15544;BMP180;7873;52.230;12.856;2023-06-22T04:10:47;101238.75;;;25.40
15544;BMP180;7873;52.230;12.856;2023-06-22T04:13:13;101239.53;;;25.48
15544;BMP180;7873;52.230;12.856;2023-06-22T04:15:40;101239.66;;;25.55
15544;BMP180;7873;52.230;12.856;2023-06-22T04:18:06;101242.81;;;25.58
15544;BMP180;7873;52.230;12.856;2023-06-22T04:20:33;101245.50;;;25.58
15544;BMP180;7873;52.230;12.856;2023-06-22T04:23:01;101248.03;;;25.59
15544;BMP180;7873;52.230;12.856;2023-06-22T04:25:28;101259.97;;;25.65
15544;BMP180;7873;52.230;12.856;2023-06-22T04:27:55;101258.97;;;25.58
15544;BMP180;7873;52.230;12.856;2023-06-22T04:30:21;101265.16;;;25.66
15544;BMP180;7873;52.230;12.856;2023-06-22T04:32:48;101257.19;;;25.73
15544;BMP180;7873;52.230;12.856;2023-06-22T04:35:21;101257.84;;;25.75
15544;BMP180;7873;52.230;12.856;2023-06-22T04:37:48;101256.66;;;25.77
15544;BMP180;7873;52.230;12.856;2023-06-22T04:40:21;101254.97;;;25.76
15544;BMP180;7873;52.230;12.856;2023-06-22T04:42:48;101253.75;;;25.79
15544;BMP180;7873;52.230;12.856;2023-06-22T04:45:19;101252.16;;;25.70
15544;BMP180;7873;52.230;12.856;2023-06-22T04:47:46;101239.03;;;25.67
15544;BMP180;7873;52.230;12.856;2023-06-22T04:50:13;101245.72;;;25.71
15544;BMP180;7873;52.230;12.856;2023-06-22T04:52:41;101247.59;;;25.70
15544;BMP180;7873;52.230;12.856;2023-06-22T04:55:08;101242.75;;;25.66
15544;BMP180;7873;52.230;12.856;2023-06-22T04:57:37;101248.16;;;25.66
15544;BMP180;7873;52.230;12.856;2023-06-22T05:00:06;101251.88;;;25.65
15544;BMP180;7873;52.230;12.856;2023-06-22T05:02:38;101251.19;;;25.63
15544;BMP180;7873;52.230;12.856;2023-06-22T05:05:05;101254.69;;;25.49
15544;BMP180;7873;52.230;12.856;2023-06-22T05:07:33;101248.34;;;25.42
15544;BMP180;7873;52.230;12.856;2023-06-22T05:09:59;101241.72;;;25.45
15544;BMP180;7873;52.230;12.856;2023-06-22T05:12:27;101233.41;;;25.54
15544;BMP180;7873;52.230;12.856;2023-06-22T05:14:55;101244.69;;;25.58
15544;BMP180;7873;52.230;12.856;2023-06-22T05:17:22;101244.56;;;25.51
15544;BMP180;7873;52.230;12.856;2023-06-22T05:19:48;101242.88;;;25.50
15544;BMP180;7873;52.230;12.856;2023-06-22T05:22:15;101235.16;;;25.47
15544;BMP180;7873;52.230;12.856;2023-06-22T05:24:42;101234.25;;;25.55
15544;BMP180;7873;52.230;12.856;2023-06-22T05:27:09;101239.81;;;25.53
15544;BMP180;7873;52.230;12.856;2023-06-22T05:29:36;101243.47;;;25.60
15544;BMP180;7873;52.230;12.856;2023-06-22T05:32:05;101252.03;;;25.63
15544;BMP180;7873;52.230;12.856;2023-06-22T05:34:32;101244.59;;;25.65
15544;BMP180;7873;52.230;12.856;2023-06-22T05:36:58;101240.22;;;25.64
15544;BMP180;7873;52.230;12.856;2023-06-22T05:39:25;101245.63;;;25.64
15544;BMP180;7873;52.230;12.856;2023-06-22T05:41:52;101247.47;;;25.64
15544;BMP180;7873;52.230;12.856;2023-06-22T05:44:19;101241.06;;;25.65
15544;BMP180;7873;52.230;12.856;2023-06-22T05:46:45;101243.78;;;25.65
15544;BMP180;7873;52.230;12.856;2023-06-22T05:49:15;101249.81;;;25.67
15544;BMP180;7873;52.230;12.856;2023-06-22T05:51:42;101246.28;;;25.66
15544;BMP180;7873;52.230;12.856;2023-06-22T05:54:09;101242.44;;;25.61
15544;BMP180;7873;52.230;12.856;2023-06-22T05:56:38;101243.00;;;25.57
15544;BMP180;7873;52.230;12.856;2023-06-22T05:59:05;101247.91;;;25.53
15544;BMP180;7873;52.230;12.856;2023-06-22T06:01:32;101248.06;;;25.52
15544;BMP180;7873;52.230;12.856;2023-06-22T06:04:00;101253.75;;;25.42
15544;BMP180;7873;52.230;12.856;2023-06-22T06:06:28;101247.31;;;25.43
15544;BMP180;7873;52.230;12.856;2023-06-22T06:08:54;101249.28;;;25.49
15544;BMP180;7873;52.230;12.856;2023-06-22T06:11:21;101252.53;;;25.45
15544;BMP180;7873;52.230;12.856;2023-06-22T06:13:48;101253.84;;;25.49
15544;BMP180;7873;52.230;12.856;2023-06-22T06:16:15;101256.25;;;25.44
15544;BMP180;7873;52.230;12.856;2023-06-22T06:18:41;101252.16;;;25.48
15544;BMP180;7873;52.230;12.856;2023-06-22T06:21:08;101246.72;;;25.56
15544;BMP180;7873;52.230;12.856;2023-06-22T06:23:36;101245.13;;;25.61
15544;BMP180;7873;52.230;12.856;2023-06-22T06:26:02;101243.09;;;25.63
15544;BMP180;7873;52.230;12.856;2023-06-22T06:28:32;101240.22;;;25.64
15544;BMP180;7873;52.230;12.856;2023-06-22T06:30:59;101243.09;;;25.63
15544;BMP180;7873;52.230;12.856;2023-06-22T06:33:26;101236.88;;;25.62
15544;BMP180;7873;52.230;12.856;2023-06-22T06:35:52;101246.16;;;25.60
15544;BMP180;7873;52.230;12.856;2023-06-22T06:38:21;101241.13;;;25.57
15544;BMP180;7873;52.230;12.856;2023-06-22T06:40:49;101232.38;;;25.55
15544;BMP180;7873;52.230;12.856;2023-06-22T06:43:16;101227.53;;;25.51
15544;BMP180;7873;52.230;12.856;2023-06-22T06:45:56;101228.97;;;25.39
15544;BMP180;7873;52.230;12.856;2023-06-22T06:48:40;101238.16;;;25.30
15544;BMP180;7873;52.230;12.856;2023-06-22T06:51:06;101234.78;;;25.28
15544;BMP180;7873;52.230;12.856;2023-06-22T06:53:50;101229.22;;;25.29
15544;BMP180;7873;52.230;12.856;2023-06-22T06:56:18;101222.81;;;25.30
15544;BMP180;7873;52.230;12.856;2023-06-22T06:58:44;101220.00;;;25.24
15544;BMP180;7873;52.230;12.856;2023-06-22T07:01:11;101210.72;;;25.26
15544;BMP180;7873;52.230;12.856;2023-06-22T07:03:38;101208.69;;;25.28
15544;BMP180;7873;52.230;12.856;2023-06-22T07:06:04;101208.84;;;25.27
15544;BMP180;7873;52.230;12.856;2023-06-22T07:08:31;101203.94;;;25.30
15544;BMP180;7873;52.230;12.856;2023-06-22T07:10:58;101199.19;;;25.32
15544;BMP180;7873;52.230;12.856;2023-06-22T07:13:27;101202.84;;;25.39
15544;BMP180;7873;52.230;12.856;2023-06-22T07:15:54;101203.41;;;25.35
15544;BMP180;7873;52.230;12.856;2023-06-22T07:18:21;101196.44;;;25.40
15544;BMP180;7873;52.230;12.856;2023-06-22T07:20:47;101211.78;;;25.40
15544;BMP180;7873;52.230;12.856;2023-06-22T07:23:14;101206.03;;;25.43
15544;BMP180;7873;52.230;12.856;2023-06-22T07:25:41;101208.91;;;25.41
15544;BMP180;7873;52.230;12.856;2023-06-22T07:28:07;101211.25;;;25.44
15544;BMP180;7873;52.230;12.856;2023-06-22T07:30:36;101219.63;;;25.49
15544;BMP180;7873;52.230;12.856;2023-06-22T07:33:03;101217.97;;;25.48
15544;BMP180;7873;52.230;12.856;2023-06-22T07:35:32;101222.81;;;25.53
15544;BMP180;7873;52.230;12.856;2023-06-22T07:37:58;101209.13;;;25.54
15544;BMP180;7873;52.230;12.856;2023-06-22T07:40:25;101215.91;;;25.50
15544;BMP180;7873;52.230;12.856;2023-06-22T07:42:52;101217.75;;;25.50
15544;BMP180;7873;52.230;12.856;2023-06-22T07:45:19;101231.06;;;25.51
15544;BMP180;7873;52.230;12.856;2023-06-22T07:47:47;101225.38;;;25.46
15544;BMP180;7873;52.230;12.856;2023-06-22T07:50:14;101219.78;;;25.48
15544;BMP180;7873;52.230;12.856;2023-06-22T07:52:40;101226.16;;;25.55
15544;BMP180;7873;52.230;12.856;2023-06-22T07:55:08;101214.75;;;25.67
15544;BMP180;7873;52.230;12.856;2023-06-22T07:57:34;101210.09;;;25.75
15544;BMP180;7873;52.230;12.856;2023-06-22T08:00:03;101212.41;;;25.86
15544;BMP180;7873;52.230;12.856;2023-06-22T08:02:35;101206.63;;;25.89
15544;BMP180;7873;52.230;12.856;2023-06-22T08:05:03;101206.25;;;25.92
15544;BMP180;7873;52.230;12.856;2023-06-22T08:07:32;101199.28;;;25.98
15544;BMP180;7873;52.230;12.856;2023-06-22T08:09:59;101209.72;;;26.01
15544;BMP180;7873;52.230;12.856;2023-06-22T08:12:25;101205.16;;;26.01
15544;BMP180;7873;52.230;12.856;2023-06-22T08:14:52;101204.69;;;25.98
15544;BMP180;7873;52.230;12.856;2023-06-22T08:17:19;101203.28;;;26.02
15544;BMP180;7873;52.230;12.856;2023-06-22T08:19:45;101205.25;;;26.08
15544;BMP180;7873;52.230;12.856;2023-06-22T08:22:13;101204.03;;;26.10
15544;BMP180;7873;52.230;12.856;2023-06-22T08:24:40;101204.91;;;26.11
15544;BMP180;7873;52.230;12.856;2023-06-22T08:27:07;101209.44;;;26.10
15544;BMP180;7873;52.230;12.856;2023-06-22T08:29:35;101201.81;;;26.14
15544;BMP180;7873;52.230;12.856;2023-06-22T08:32:02;101205.16;;;26.16
15544;BMP180;7873;52.230;12.856;2023-06-22T08:34:29;101201.63;;;26.15
15544;BMP180;7873;52.230;12.856;2023-06-22T08:36:56;101200.59;;;26.16
15544;BMP180;7873;52.230;12.856;2023-06-22T08:39:24;101208.69;;;26.16
15544;BMP180;7873;52.230;12.856;2023-06-22T08:41:51;101208.69;;;26.16
15544;BMP180;7873;52.230;12.856;2023-06-22T08:44:18;101209.53;;;26.17
15544;BMP180;7873;52.230;12.856;2023-06-22T08:46:45;101208.50;;;26.18
15544;BMP180;7873;52.230;12.856;2023-06-22T08:49:12;101215.59;;;26.19
15544;BMP180;7873;52.230;12.856;2023-06-22T08:51:39;101210.19;;;26.19
15544;BMP180;7873;52.230;12.856;2023-06-22T08:54:05;101202.09;;;26.19
15544;BMP180;7873;52.230;12.856;2023-06-22T08:56:33;101208.50;;;26.18
15544;BMP180;7873;52.230;12.856;2023-06-22T08:59:00;101204.13;;;26.17
15544;BMP180;7873;52.230;12.856;2023-06-22T09:01:27;101203.28;;;26.16
15544;BMP180;7873;52.230;12.856;2023-06-22T09:03:54;101193.25;;;26.10
15544;BMP180;7873;52.230;12.856;2023-06-22T09:06:24;101202.75;;;26.06
15544;BMP180;7873;52.230;12.856;2023-06-22T09:08:51;101205.72;;;26.11
15544;BMP180;7873;52.230;12.856;2023-06-22T09:11:17;101206.84;;;26.17
15544;BMP180;7873;52.230;12.856;2023-06-22T09:13:45;101209.72;;;26.15
15544;BMP180;7873;52.230;12.856;2023-06-22T09:16:12;101199.94;;;26.14
15544;BMP180;7873;52.230;12.856;2023-06-22T09:18:39;101200.47;;;26.10
15544;BMP180;7873;52.230;12.856;2023-06-22T09:21:06;101203.66;;;26.13
15544;BMP180;7873;52.230;12.856;2023-06-22T09:23:33;101192.31;;;26.18
15544;BMP180;7873;52.230;12.856;2023-06-22T09:26:00;101191.75;;;26.22
15544;BMP180;7873;52.230;12.856;2023-06-22T09:28:26;101180.59;;;26.25
15544;BMP180;7873;52.230;12.856;2023-06-22T09:30:54;101181.41;;;26.26
15544;BMP180;7873;52.230;12.856;2023-06-22T09:33:23;101174.97;;;26.27
15544;BMP180;7873;52.230;12.856;2023-06-22T09:35:50;101183.09;;;26.27
15544;BMP180;7873;52.230;12.856;2023-06-22T09:38:17;101177.69;;;26.27
15544;BMP180;7873;52.230;12.856;2023-06-22T09:40:43;101171.47;;;26.26
15544;BMP180;7873;52.230;12.856;2023-06-22T09:43:10;101167.00;;;26.19
15544;BMP180;7873;52.230;12.856;2023-06-22T09:45:37;101171.28;;;26.13
15544;BMP180;7873;52.230;12.856;2023-06-22T09:48:06;101158.41;;;26.15
15544;BMP180;7873;52.230;12.856;2023-06-22T09:50:32;101160.94;;;26.17
15544;BMP180;7873;52.230;12.856;2023-06-22T09:52:59;101170.72;;;26.18
15544;BMP180;7873;52.230;12.856;2023-06-22T09:55:26;101172.19;;;26.20
15544;BMP180;7873;52.230;12.856;2023-06-22T09:57:52;101185.69;;;26.20
15544;BMP180;7873;52.230;12.856;2023-06-22T10:00:20;101187.19;;;26.23
15544;BMP180;7873;52.230;12.856;2023-06-22T10:05:15;101172.00;;;26.22
15544;BMP180;7873;52.230;12.856;2023-06-22T10:07:42;101171.09;;;26.15
15544;BMP180;7873;52.230;12.856;2023-06-22T10:10:09;101169.59;;;26.12
15544;BMP180;7873;52.230;12.856;2023-06-22T10:15:04;101163.66;;;26.17
15544;BMP180;7873;52.230;12.856;2023-06-22T10:17:30;101157.66;;;26.21
15544;BMP180;7873;52.230;12.856;2023-06-22T10:19:57;101164.75;;;26.22
15544;BMP180;7873;52.230;12.856;2023-06-22T10:22:25;101156.00;;;26.20
15544;BMP180;7873;52.230;12.856;2023-06-22T10:24:52;101150.78;;;26.19
15544;BMP180;7873;52.230;12.856;2023-06-22T10:27:18;101151.81;;;26.18
15544;BMP180;7873;52.230;12.856;2023-06-22T10:29:45;101148.00;;;26.12
15544;BMP180;7873;52.230;12.856;2023-06-22T10:32:12;101142.81;;;26.11
15544;BMP180;7873;52.230;12.856;2023-06-22T10:34:39;101140.09;;;26.11
15544;BMP180;7873;52.230;12.856;2023-06-22T10:37:05;101132.00;;;26.11
15544;BMP180;7873;52.230;12.856;2023-06-22T10:39:33;101140.75;;;26.13
15544;BMP180;7873;52.230;12.856;2023-06-22T10:42:00;101130.59;;;26.15
15544;BMP180;7873;52.230;12.856;2023-06-22T10:44:27;101122.78;;;26.20
15544;BMP180;7873;52.230;12.856;2023-06-22T10:46:53;101121.75;;;26.21
15544;BMP180;7873;52.230;12.856;2023-06-22T10:49:20;101126.75;;;26.24
15544;BMP180;7873;52.230;12.856;2023-06-22T10:51:47;101122.22;;;26.24
15544;BMP180;7873;52.230;12.856;2023-06-22T10:54:13;101123.03;;;26.25
15544;BMP180;7873;52.230;12.856;2023-06-22T10:59:10;101108.88;;;26.23
15544;BMP180;7873;52.230;12.856;2023-06-22T11:01:38;101118.09;;;26.28
15544;BMP180;7873;52.230;12.856;2023-06-22T11:04:05;101109.25;;;26.34
15544;BMP180;7873;52.230;12.856;2023-06-22T11:06:31;101103.66;;;26.36
15544;BMP180;7873;52.230;12.856;2023-06-22T11:08:58;101102.63;;;26.37
15544;BMP180;7873;52.230;12.856;2023-06-22T11:11:25;101101.78;;;26.36
15544;BMP180;7873;52.230;12.856;2023-06-22T11:13:53;101100.09;;;26.35
15544;BMP180;7873;52.230;12.856;2023-06-22T11:16:20;101103.66;;;26.36
15544;BMP180;7873;52.230;12.856;2023-06-22T11:18:47;101097.41;;;26.35
15544;BMP180;7873;52.230;12.856;2023-06-22T11:21:13;101103.03;;;26.34
15544;BMP180;7873;52.230;12.856;2023-06-22T11:23:42;101101.53;;;26.31
15544;BMP180;7873;52.230;12.856;2023-06-22T11:26:08;101087.81;;;26.33
15544;BMP180;7873;52.230;12.856;2023-06-22T11:28:35;101091.19;;;26.35
15544;BMP180;7873;52.230;12.856;2023-06-22T11:31:03;101087.25;;;26.37
15544;BMP180;7873;52.230;12.856;2023-06-22T11:33:30;101086.22;;;26.38
15544;BMP180;7873;52.230;12.856;2023-06-22T11:35:57;101084.38;;;26.39
15544;BMP180;7873;52.230;12.856;2023-06-22T11:38:24;101078.75;;;26.40
15544;BMP180;7873;52.230;12.856;2023-06-22T11:40:50;101073.56;;;26.39
15544;BMP180;7873;52.230;12.856;2023-06-22T11:43:17;101078.25;;;26.30
15544;BMP180;7873;52.230;12.856;2023-06-22T11:45:44;101066.81;;;26.28
15544;BMP180;7873;52.230;12.856;2023-06-22T11:48:11;101070.97;;;26.31
15544;BMP180;7873;52.230;12.856;2023-06-22T11:50:38;101077.69;;;26.35
15544;BMP180;7873;52.230;12.856;2023-06-22T11:53:05;101078.88;;;26.32
15544;BMP180;7873;52.230;12.856;2023-06-22T11:55:31;101072.94;;;26.37
15544;BMP180;7873;52.230;12.856;2023-06-22T11:57:58;101064.19;;;26.35
15544;BMP180;7873;52.230;12.856;2023-06-22T12:00:28;101056.25;;;26.33
15544;BMP180;7873;52.230;12.856;2023-06-22T12:02:55;101061.84;;;26.32
15544;BMP180;7873;52.230;12.856;2023-06-22T12:05:23;101054.75;;;26.31
15544;BMP180;7873;52.230;12.856;2023-06-22T12:07:53;101068.72;;;26.34
15544;BMP180;7873;52.230;12.856;2023-06-22T12:10:19;101050.69;;;26.35
15544;BMP180;7873;52.230;12.856;2023-06-22T12:12:46;101054.66;;;26.39
15544;BMP180;7873;52.230;12.856;2023-06-22T12:15:13;101038.84;;;26.36
15544;BMP180;7873;52.230;12.856;2023-06-22T12:17:40;101049.44;;;26.37
15544;BMP180;7873;52.230;12.856;2023-06-22T12:20:08;101046.34;;;26.40
15544;BMP180;7873;52.230;12.856;2023-06-22T12:22:36;101045.94;;;26.37
15544;BMP180;7873;52.230;12.856;2023-06-22T12:25:04;101040.53;;;26.37
15544;BMP180;7873;52.230;12.856;2023-06-22T12:27:31;101030.53;;;26.37
15544;BMP180;7873;52.230;12.856;2023-06-22T12:29:58;101030.75;;;26.36
15544;BMP180;7873;52.230;12.856;2023-06-22T12:32:24;101037.34;;;26.33
15544;BMP180;7873;52.230;12.856;2023-06-22T12:34:51;101021.78;;;26.35
15544;BMP180;7873;52.230;12.856;2023-06-22T12:37:18;101012.22;;;26.33
15544;BMP180;7873;52.230;12.856;2023-06-22T12:39:46;101016.97;;;26.31
15544;BMP180;7873;52.230;12.856;2023-06-22T12:42:12;101015.94;;;26.32
15544;BMP180;7873;52.230;12.856;2023-06-22T12:44:39;101007.19;;;26.30
15544;BMP180;7873;52.230;12.856;2023-06-22T12:47:07;100998.44;;;26.28
15544;BMP180;7873;52.230;12.856;2023-06-22T12:49:35;101000.50;;;26.26
15544;BMP180;7873;52.230;12.856;2023-06-22T12:52:02;101002.38;;;26.25
15544;BMP180;7873;52.230;12.856;2023-06-22T12:54:30;100998.84;;;26.25
15544;BMP180;7873;52.230;12.856;2023-06-22T12:56:59;101002.94;;;26.21
15544;BMP180;7873;52.230;12.856;2023-06-22T12:59:34;100991.13;;;26.22
15544;BMP180;7873;52.230;12.856;2023-06-22T13:02:00;100996.13;;;26.25
15544;BMP180;7873;52.230;12.856;2023-06-22T13:04:27;100994.28;;;26.25
15544;BMP180;7873;52.230;12.856;2023-06-22T13:06:54;100986.56;;;26.22
15544;BMP180;7873;52.230;12.856;2023-06-22T13:09:20;100986.75;;;26.21
15544;BMP180;7873;52.230;12.856;2023-06-22T13:11:47;100974.53;;;26.25
15544;BMP180;7873;52.230;12.856;2023-06-22T13:14:15;100968.97;;;26.26
15544;BMP180;7873;52.230;12.856;2023-06-22T13:16:42;100962.53;;;26.27
15544;BMP180;7873;52.230;12.856;2023-06-22T13:19:09;100954.22;;;26.29
15544;BMP180;7873;52.230;12.856;2023-06-22T13:21:35;100950.50;;;26.30
15544;BMP180;7873;52.230;12.856;2023-06-22T13:24:02;100943.41;;;26.29
15544;BMP180;7873;52.230;12.856;2023-06-22T13:26:31;100944.91;;;26.31
15544;BMP180;7873;52.230;12.856;2023-06-22T13:28:59;100943.63;;;26.27
15544;BMP180;7873;52.230;12.856;2023-06-22T13:31:27;100933.47;;;26.29
15544;BMP180;7873;52.230;12.856;2023-06-22T13:33:53;100926.41;;;26.28
15544;BMP180;7873;52.230;12.856;2023-06-22T13:36:20;100928.63;;;26.25
15544;BMP180;7873;52.230;12.856;2023-06-22T13:38:48;100922.22;;;26.26
15544;BMP180;7873;52.230;12.856;2023-06-22T13:41:15;100925.75;;;26.26
15544;BMP180;7873;52.230;12.856;2023-06-22T13:43:42;100924.28;;;26.24
15544;BMP180;7873;52.230;12.856;2023-06-22T13:46:08;100924.47;;;26.22
15544;BMP180;7873;52.230;12.856;2023-06-22T13:48:36;100921.41;;;26.25
15544;BMP180;7873;52.230;12.856;2023-06-22T13:51:03;100918.69;;;26.25
15544;BMP180;7873;52.230;12.856;2023-06-22T13:53:29;100923.88;;;26.27
15544;BMP180;7873;52.230;12.856;2023-06-22T13:55:56;100931.81;;;26.28
15544;BMP180;7873;52.230;12.856;2023-06-22T13:58:23;100935.53;;;26.27
15544;BMP180;7873;52.230;12.856;2023-06-22T14:00:50;100933.00;;;26.26
15544;BMP180;7873;52.230;12.856;2023-06-22T14:03:16;100931.97;;;26.27
15544;BMP180;7873;52.230;12.856;2023-06-22T14:05:44;100920.53;;;26.25